createdAt,value
2022-09-11T00:01:04.014Z,5.17
2022-09-11T00:06:30.128Z,4.73
2022-09-11T00:11:53.063Z,4.97
2022-09-11T00:17:17.371Z,4.80
2022-09-11T00:22:39.704Z,4.93
2022-09-11T00:28:03.104Z,4.77
2022-09-11T00:33:27.439Z,4.50
2022-09-11T00:38:51.157Z,5.23
2022-09-11T00:44:18.896Z,4.57
2022-09-11T00:50:39.299Z,4.60
2022-09-11T01:04:24.607Z,5.07
2022-09-11T01:27:17.213Z,6.37
2022-09-11T01:32:45.411Z,7.27
2022-09-11T01:38:39.187Z,8.30
2022-09-11T01:44:17.254Z,8.20
2022-09-11T01:49:48.845Z,8.93
2022-09-11T01:55:21.242Z,10.13
2022-09-11T02:00:47.258Z,10.50
2022-09-11T02:06:18.275Z,10.43
2022-09-11T02:11:43.013Z,10.83
2022-09-11T02:18:03.895Z,11.00
2022-09-11T02:23:28.192Z,11.23
2022-09-11T02:28:51.123Z,10.70
2022-09-11T02:34:14.550Z,10.80
2022-09-11T02:40:04.277Z,11.33
2022-09-11T02:45:48.725Z,11.13
2022-09-11T02:51:34.834Z,10.57
2022-09-11T02:57:08.779Z,10.40
2022-09-11T03:02:37.518Z,11.03
2022-09-11T03:08:00.129Z,11.27
2022-09-11T03:13:23.347Z,10.87
2022-09-11T03:18:46.067Z,10.63
2022-09-11T03:24:10.201Z,11.70
2022-09-11T03:29:33.710Z,11.70
2022-09-11T03:34:56.838Z,12.33
2022-09-11T03:40:20.354Z,12.07
2022-09-11T03:45:43.517Z,12.10
2022-09-11T03:51:06.203Z,12.13
2022-09-11T03:56:31.447Z,12.80
2022-09-11T04:01:53.931Z,13.40
2022-09-11T04:07:16.382Z,12.97
2022-09-11T04:12:38.866Z,13.40
2022-09-11T04:18:07.149Z,12.30
2022-09-11T04:23:30.458Z,13.47
2022-09-11T04:28:52.792Z,13.43
2022-09-11T04:34:15.247Z,12.53
2022-09-11T04:39:37.597Z,12.10
2022-09-11T04:45:00.104Z,12.80
2022-09-11T04:50:23.272Z,13.07
2022-09-11T04:56:08.004Z,13.23
2022-09-11T05:01:36.554Z,12.97
2022-09-11T05:07:01.136Z,12.57
2022-09-11T05:12:24.198Z,13.10
2022-09-11T05:17:48.464Z,14.27
2022-09-11T05:23:14.236Z,13.13
2022-09-11T05:28:37.870Z,13.47
2022-09-11T05:34:00.768Z,12.90
2022-09-11T05:39:24.210Z,12.07
2022-09-11T05:44:48.375Z,13.47
2022-09-11T05:50:11.611Z,12.60
2022-09-11T05:55:35.672Z,12.37
2022-09-11T06:01:12.102Z,12.53
2022-09-11T06:06:35.836Z,14.00
2022-09-11T06:11:58.814Z,13.37
2022-09-11T06:17:23.240Z,13.53
2022-09-11T06:22:45.908Z,12.93
2022-09-11T06:28:08.401Z,13.13
2022-09-11T06:33:36.293Z,12.30
2022-09-11T06:38:59.305Z,12.03
2022-09-11T06:44:27.509Z,13.53
2022-09-11T06:49:52.171Z,13.33
2022-09-11T06:55:27.889Z,13.77
2022-09-11T07:01:07.116Z,13.37
2022-09-11T07:06:31.339Z,14.47
2022-09-11T07:11:55.529Z,13.47
2022-09-11T07:17:20.845Z,14.27
2022-09-11T07:22:46.811Z,13.47
2022-09-11T07:28:12.423Z,13.93
2022-09-11T07:33:35.802Z,14.83
2022-09-11T07:39:00.429Z,14.73
2022-09-11T07:44:43.704Z,14.40
2022-09-11T07:50:06.897Z,13.93
2022-09-11T07:55:30.050Z,13.83
2022-09-11T08:00:59.035Z,14.80
2022-09-11T08:06:23.966Z,14.97
2022-09-11T08:11:49.043Z,14.47
2022-09-11T08:17:13.629Z,13.20
2022-09-11T08:22:36.489Z,13.67
2022-09-11T08:27:59.742Z,13.90
2022-09-11T08:33:22.587Z,13.53
2022-09-11T08:38:45.911Z,15.03
2022-09-11T08:44:46.449Z,13.13
2022-09-11T08:50:28.552Z,12.77
2022-09-11T08:56:03.286Z,14.50
2022-09-11T09:01:37.235Z,12.60
2022-09-11T09:07:38.711Z,11.63
2022-09-11T09:13:48.156Z,12.37
2022-09-11T09:19:17.541Z,11.63
2022-09-11T09:24:44.668Z,9.57
2022-09-11T09:30:17.799Z,8.53
2022-09-11T09:35:43.267Z,9.02
2022-09-11T09:41:44.254Z,8.75
2022-09-11T09:47:12.329Z,10.40
2022-09-11T09:52:36.123Z,7.07
2022-09-11T09:57:58.466Z,8.07
2022-09-11T10:03:23.834Z,8.52
2022-09-11T10:08:46.288Z,7.75
2022-09-11T10:14:46.844Z,6.30
2022-09-11T10:20:25.947Z,6.07
2022-09-11T10:25:50.038Z,6.20
2022-09-11T10:31:16.554Z,6.22
2022-09-11T10:36:39.195Z,6.57
2022-09-11T10:42:13.330Z,6.07
2022-09-11T10:47:36.017Z,5.25
2022-09-11T10:53:12.662Z,4.75
2022-09-11T10:58:39.820Z,4.95
2022-09-11T11:04:02.876Z,5.70
2022-09-11T11:09:44.551Z,5.38
2022-09-11T11:15:29.496Z,5.00
2022-09-11T11:21:21.315Z,4.60
2022-09-11T11:27:05.215Z,4.40
2022-09-11T11:32:36.769Z,4.80
2022-09-11T11:38:31.918Z,4.43
2022-09-11T11:43:56.542Z,3.60
2022-09-11T11:49:23.478Z,4.03
2022-09-11T11:54:54.538Z,2.90
2022-09-11T12:00:18.995Z,3.15
2022-09-11T12:05:41.593Z,3.33
2022-09-11T12:11:07.944Z,3.20
2022-09-11T12:16:35.078Z,3.17
2022-09-11T12:22:11.769Z,3.92
2022-09-11T12:27:37.386Z,3.65
2022-09-11T12:33:02.539Z,3.35
2022-09-11T12:38:39.743Z,3.38
2022-09-11T12:44:04.837Z,3.78
2022-09-11T12:49:27.371Z,3.95
2022-09-11T12:54:51.198Z,3.92
2022-09-11T13:00:23.587Z,3.58
2022-09-11T13:05:55.519Z,3.83
2022-09-11T13:11:54.184Z,4.10
2022-09-11T13:17:32.739Z,3.72
2022-09-11T13:23:10.690Z,4.18
2022-09-11T13:28:47.283Z,3.67
2022-09-11T13:34:16.345Z,3.00
2022-09-11T13:39:45.925Z,2.63
2022-09-11T13:45:15.401Z,2.90
2022-09-11T13:50:38.031Z,3.15
2022-09-11T13:56:00.395Z,3.15
2022-09-11T14:01:23.710Z,3.05
2022-09-11T14:06:46.757Z,3.55
2022-09-11T14:12:09.148Z,3.83
2022-09-11T14:17:31.771Z,4.28
2022-09-11T14:22:56.900Z,3.50
2022-09-11T14:28:50.756Z,3.03
2022-09-11T14:34:19.109Z,3.53
2022-09-11T14:39:46.121Z,3.30
2022-09-11T14:45:18.897Z,2.83
2022-09-11T14:50:41.723Z,2.97
2022-09-11T14:56:04.961Z,2.83
2022-09-11T15:01:27.259Z,2.80
2022-09-11T15:06:53.248Z,2.33
2022-09-11T15:12:16.243Z,2.67
2022-09-11T15:17:38.814Z,2.60
2022-09-11T15:23:01.081Z,2.30
2022-09-11T15:28:24.691Z,2.90
2022-09-11T15:33:53.783Z,2.35
2022-09-11T15:39:18.907Z,2.45
2022-09-11T15:44:41.027Z,2.45
2022-09-11T15:50:04.995Z,2.30
2022-09-11T15:55:30.229Z,2.70
2022-09-11T16:00:53.468Z,2.80
2022-09-11T16:06:16.098Z,2.60
2022-09-11T16:11:43.147Z,2.60
2022-09-11T16:17:07.049Z,2.17
2022-09-11T16:22:31.447Z,2.28
2022-09-11T16:27:57.567Z,2.97
2022-09-11T16:33:19.934Z,2.50
2022-09-11T16:38:43.096Z,2.78
2022-09-11T16:44:07.563Z,3.00
2022-09-11T16:49:37.205Z,2.63
2022-09-11T16:55:09.694Z,2.83
2022-09-11T17:00:32.818Z,3.20
2022-09-11T17:05:55.663Z,2.95
2022-09-11T17:11:21.539Z,3.17
2022-09-11T17:16:43.995Z,2.60
2022-09-11T17:22:07.261Z,3.72
2022-09-11T17:27:29.472Z,3.75
2022-09-11T17:32:51.847Z,3.60
2022-09-11T17:38:14.375Z,6.85
2022-09-11T17:43:38.111Z,6.30
2022-09-11T17:49:00.739Z,3.65
2022-09-11T17:54:28.235Z,4.18
2022-09-11T17:59:50.428Z,4.90
2022-09-11T18:05:12.670Z,5.07
2022-09-11T18:10:35.554Z,5.65
2022-09-11T18:15:58.372Z,6.03
2022-09-11T18:21:21.956Z,5.82
2022-09-11T18:26:45.699Z,5.20
2022-09-11T18:32:07.752Z,4.80
2022-09-11T18:37:29.871Z,4.22
2022-09-11T18:42:52.232Z,3.70
2022-09-11T18:48:14.532Z,4.18
2022-09-11T18:53:38.326Z,4.27
2022-09-11T18:59:02.241Z,4.38
2022-09-11T19:04:24.625Z,3.43
2022-09-11T19:09:49.367Z,5.60
2022-09-11T19:15:11.768Z,4.73
2022-09-11T19:20:34.160Z,5.10
2022-09-11T19:25:56.274Z,5.27
2022-09-11T19:31:30.418Z,5.53
2022-09-11T19:36:53.201Z,5.70
2022-09-11T19:42:15.409Z,6.20
2022-09-11T19:47:37.981Z,6.00
2022-09-11T19:53:00.399Z,6.70
2022-09-11T19:58:24.342Z,7.77
2022-09-11T20:03:47.700Z,6.07
2022-09-11T20:09:30.298Z,6.30
2022-09-11T20:14:53.065Z,6.10
2022-09-11T20:20:15.692Z,6.20
2022-09-11T20:25:38.782Z,6.47
2022-09-11T20:31:01.202Z,6.77
2022-09-11T20:36:24.112Z,6.43
2022-09-11T20:41:46.377Z,6.17
2022-09-11T20:47:11.718Z,6.70
2022-09-11T20:52:38.779Z,5.93
2022-09-11T20:58:02.631Z,6.50
2022-09-11T21:03:26.375Z,7.43
2022-09-11T21:08:54.478Z,6.60
2022-09-11T21:14:17.260Z,6.80
2022-09-11T21:19:39.503Z,7.43
2022-09-11T21:25:02.495Z,6.87
2022-09-11T21:30:24.648Z,6.70
2022-09-11T21:35:52.565Z,6.80
2022-09-11T21:41:16.632Z,7.07
2022-09-11T21:46:38.786Z,6.97
2022-09-11T21:52:02.243Z,7.00
2022-09-11T21:57:28.903Z,6.83
2022-09-11T22:02:51.483Z,6.97
2022-09-11T22:08:17.395Z,6.87
2022-09-11T22:13:40.009Z,7.30
2022-09-11T22:19:02.587Z,7.17
2022-09-11T22:24:24.658Z,7.40
2022-09-11T22:29:47.173Z,6.97
2022-09-11T22:35:09.832Z,6.60
2022-09-11T22:40:32.102Z,6.67
2022-09-11T22:45:54.296Z,7.13
2022-09-11T22:51:16.890Z,6.57
2022-09-11T22:56:39.427Z,6.37
2022-09-11T23:02:03.106Z,6.13
2022-09-11T23:07:25.321Z,6.80
2022-09-11T23:12:47.445Z,6.30
2022-09-11T23:18:10.040Z,6.50
2022-09-11T23:23:32.599Z,6.50
2022-09-11T23:28:55.616Z,6.97
2022-09-11T23:34:17.817Z,6.67
2022-09-11T23:39:40.235Z,6.70
2022-09-11T23:45:02.901Z,6.30
2022-09-11T23:50:25.328Z,6.90
2022-09-11T23:55:48.918Z,6.73
